Terminal Aerodrome Forecast
Issued by NWS

Home | Current Version | Previous Version | Text Only | Print | Product List | Glossary On
Versions: 1 2 3 4 5 6 7 8 9 10 11 12 13 14 15 16 17 18 19 20 21
000
FTUS41 KBGM 270535
TAFELM
TAF
KELM 270535Z 2706/2806 VRB03KT P6SM SCT018 BKN040
     FM270900 VRB03KT P6SM SCT015
      TEMPO 2709/2713 2SM BR BKN008
     FM271400 24008KT P6SM SCT050
     FM280000 VRB03KT P6SM SCT250=

USA.gov is the U.S. government's official web portal to all federal, state and local government web resources and services.